sensor_id;sensor_type;location;lat;lon;timestamp;P1;durP1;ratioP1;P2;durP2;ratioP2
8895;SDS011;4484;48.928;10.066;2023-12-14T00:00:54;5.73;;;5.13;;
8895;SDS011;4484;48.928;10.066;2023-12-14T00:03:21;5.70;;;5.10;;
8895;SDS011;4484;48.928;10.066;2023-12-14T00:05:48;6.17;;;5.43;;
8895;SDS011;4484;48.928;10.066;2023-12-14T00:08:14;5.70;;;5.10;;
8895;SDS011;4484;48.928;10.066;2023-12-14T00:10:41;6.30;;;5.30;;
8895;SDS011;4484;48.928;10.066;2023-12-14T00:13:08;6.27;;;5.50;;
8895;SDS011;4484;48.928;10.066;2023-12-14T00:15:35;5.00;;;4.50;;
8895;SDS011;4484;48.928;10.066;2023-12-14T00:18:02;6.40;;;4.70;;
8895;SDS011;4484;48.928;10.066;2023-12-14T00:20:29;6.57;;;5.13;;
8895;SDS011;4484;48.928;10.066;2023-12-14T00:22:56;5.30;;;4.67;;
8895;SDS011;4484;48.928;10.066;2023-12-14T00:25:22;5.57;;;5.07;;
8895;SDS011;4484;48.928;10.066;2023-12-14T00:27:49;6.83;;;5.63;;
8895;SDS011;4484;48.928;10.066;2023-12-14T00:30:16;7.83;;;5.97;;
8895;SDS011;4484;48.928;10.066;2023-12-14T00:32:43;7.10;;;6.03;;
8895;SDS011;4484;48.928;10.066;2023-12-14T00:35:10;5.67;;;5.03;;
8895;SDS011;4484;48.928;10.066;2023-12-14T00:37:37;5.97;;;5.27;;
8895;SDS011;4484;48.928;10.066;2023-12-14T00:40:04;6.37;;;5.63;;
8895;SDS011;4484;48.928;10.066;2023-12-14T00:42:31;6.20;;;5.60;;
8895;SDS011;4484;48.928;10.066;2023-12-14T00:44:58;7.17;;;6.27;;
8895;SDS011;4484;48.928;10.066;2023-12-14T00:47:25;7.33;;;5.90;;
8895;SDS011;4484;48.928;10.066;2023-12-14T00:49:52;7.00;;;6.27;;
8895;SDS011;4484;48.928;10.066;2023-12-14T00:52:19;6.13;;;5.40;;
8895;SDS011;4484;48.928;10.066;2023-12-14T00:54:46;7.00;;;5.60;;
8895;SDS011;4484;48.928;10.066;2023-12-14T00:57:13;7.40;;;6.47;;
8895;SDS011;4484;48.928;10.066;2023-12-14T00:59:40;9.17;;;6.13;;
8895;SDS011;4484;48.928;10.066;2023-12-14T01:02:07;8.03;;;6.57;;
8895;SDS011;4484;48.928;10.066;2023-12-14T01:04:34;6.20;;;5.33;;
8895;SDS011;4484;48.928;10.066;2023-12-14T01:07:01;6.07;;;5.47;;
8895;SDS011;4484;48.928;10.066;2023-12-14T01:09:27;6.80;;;6.10;;
8895;SDS011;4484;48.928;10.066;2023-12-14T01:11:54;6.43;;;5.50;;
8895;SDS011;4484;48.928;10.066;2023-12-14T01:14:21;5.97;;;5.37;;
8895;SDS011;4484;48.928;10.066;2023-12-14T01:16:48;7.07;;;5.97;;
8895;SDS011;4484;48.928;10.066;2023-12-14T01:19:15;6.13;;;5.53;;
8895;SDS011;4484;48.928;10.066;2023-12-14T01:21:41;6.87;;;6.00;;
8895;SDS011;4484;48.928;10.066;2023-12-14T01:24:09;9.40;;;6.00;;
8895;SDS011;4484;48.928;10.066;2023-12-14T01:26:35;6.73;;;5.87;;
8895;SDS011;4484;48.928;10.066;2023-12-14T01:29:02;8.17;;;5.73;;
8895;SDS011;4484;48.928;10.066;2023-12-14T01:31:29;5.93;;;5.07;;
8895;SDS011;4484;48.928;10.066;2023-12-14T01:33:56;5.63;;;4.80;;
8895;SDS011;4484;48.928;10.066;2023-12-14T01:36:24;4.83;;;4.33;;
8895;SDS011;4484;48.928;10.066;2023-12-14T01:38:51;17.40;;;5.10;;
8895;SDS011;4484;48.928;10.066;2023-12-14T01:41:19;4.80;;;4.30;;
8895;SDS011;4484;48.928;10.066;2023-12-14T01:43:45;5.70;;;4.63;;
8895;SDS011;4484;48.928;10.066;2023-12-14T01:46:12;4.60;;;4.20;;
8895;SDS011;4484;48.928;10.066;2023-12-14T01:48:41;6.90;;;4.83;;
8895;SDS011;4484;48.928;10.066;2023-12-14T01:51:08;4.87;;;4.10;;
8895;SDS011;4484;48.928;10.066;2023-12-14T01:53:34;7.17;;;4.60;;
8895;SDS011;4484;48.928;10.066;2023-12-14T01:56:01;9.70;;;4.43;;
8895;SDS011;4484;48.928;10.066;2023-12-14T01:58:28;21.97;;;5.13;;
8895;SDS011;4484;48.928;10.066;2023-12-14T02:01:03;8.43;;;4.70;;
8895;SDS011;4484;48.928;10.066;2023-12-14T02:03:46;4.43;;;3.87;;
8895;SDS011;4484;48.928;10.066;2023-12-14T02:06:15;4.67;;;4.17;;
8895;SDS011;4484;48.928;10.066;2023-12-14T02:08:42;5.53;;;4.93;;
8895;SDS011;4484;48.928;10.066;2023-12-14T02:11:09;4.50;;;4.10;;
8895;SDS011;4484;48.928;10.066;2023-12-14T02:13:37;5.53;;;5.03;;
8895;SDS011;4484;48.928;10.066;2023-12-14T02:16:04;6.87;;;4.70;;
8895;SDS011;4484;48.928;10.066;2023-12-14T02:18:31;12.97;;;4.87;;
8895;SDS011;4484;48.928;10.066;2023-12-14T02:20:58;5.50;;;4.70;;
8895;SDS011;4484;48.928;10.066;2023-12-14T02:23:24;21.83;;;4.70;;
8895;SDS011;4484;48.928;10.066;2023-12-14T02:25:51;4.97;;;4.47;;
8895;SDS011;4484;48.928;10.066;2023-12-14T02:28:18;42.77;;;5.47;;
8895;SDS011;4484;48.928;10.066;2023-12-14T02:30:45;29.50;;;5.17;;
8895;SDS011;4484;48.928;10.066;2023-12-14T02:33:12;5.20;;;4.70;;
8895;SDS011;4484;48.928;10.066;2023-12-14T02:35:39;6.27;;;4.97;;
8895;SDS011;4484;48.928;10.066;2023-12-14T02:38:06;12.23;;;5.10;;
8895;SDS011;4484;48.928;10.066;2023-12-14T02:40:33;5.60;;;4.37;;
8895;SDS011;4484;48.928;10.066;2023-12-14T02:42:59;4.80;;;4.30;;
8895;SDS011;4484;48.928;10.066;2023-12-14T02:45:26;13.53;;;5.03;;
8895;SDS011;4484;48.928;10.066;2023-12-14T02:47:53;33.47;;;7.50;;
8895;SDS011;4484;48.928;10.066;2023-12-14T02:50:20;26.13;;;8.97;;
8895;SDS011;4484;48.928;10.066;2023-12-14T02:52:47;35.23;;;9.33;;
8895;SDS011;4484;48.928;10.066;2023-12-14T02:55:14;9.63;;;7.03;;
8895;SDS011;4484;48.928;10.066;2023-12-14T02:57:41;10.67;;;6.83;;
8895;SDS011;4484;48.928;10.066;2023-12-14T03:00:08;16.70;;;6.53;;
8895;SDS011;4484;48.928;10.066;2023-12-14T03:02:35;7.93;;;5.57;;
8895;SDS011;4484;48.928;10.066;2023-12-14T03:05:02;20.47;;;6.37;;
8895;SDS011;4484;48.928;10.066;2023-12-14T03:07:29;9.83;;;6.37;;
8895;SDS011;4484;48.928;10.066;2023-12-14T03:09:56;65.97;;;7.90;;
8895;SDS011;4484;48.928;10.066;2023-12-14T03:12:23;11.23;;;6.70;;
8895;SDS011;4484;48.928;10.066;2023-12-14T03:14:50;7.40;;;6.00;;
8895;SDS011;4484;48.928;10.066;2023-12-14T03:17:16;31.73;;;7.77;;
8895;SDS011;4484;48.928;10.066;2023-12-14T03:19:43;7.10;;;6.10;;
8895;SDS011;4484;48.928;10.066;2023-12-14T03:22:10;17.57;;;7.03;;
8895;SDS011;4484;48.928;10.066;2023-12-14T03:24:37;57.57;;;9.20;;
8895;SDS011;4484;48.928;10.066;2023-12-14T03:27:04;25.90;;;7.47;;
8895;SDS011;4484;48.928;10.066;2023-12-14T03:29:31;13.33;;;7.20;;
8895;SDS011;4484;48.928;10.066;2023-12-14T03:31:58;9.93;;;6.63;;
8895;SDS011;4484;48.928;10.066;2023-12-14T03:34:25;10.27;;;6.50;;
8895;SDS011;4484;48.928;10.066;2023-12-14T03:36:52;9.13;;;7.17;;
8895;SDS011;4484;48.928;10.066;2023-12-14T03:39:19;19.03;;;6.50;;
8895;SDS011;4484;48.928;10.066;2023-12-14T03:41:46;12.97;;;7.50;;
8895;SDS011;4484;48.928;10.066;2023-12-14T03:44:12;13.13;;;6.80;;
8895;SDS011;4484;48.928;10.066;2023-12-14T03:46:39;9.43;;;7.70;;
8895;SDS011;4484;48.928;10.066;2023-12-14T03:49:06;11.07;;;7.73;;
8895;SDS011;4484;48.928;10.066;2023-12-14T03:51:33;11.40;;;6.90;;
8895;SDS011;4484;48.928;10.066;2023-12-14T03:54:00;9.17;;;5.93;;
8895;SDS011;4484;48.928;10.066;2023-12-14T03:56:27;9.10;;;6.50;;
8895;SDS011;4484;48.928;10.066;2023-12-14T03:58:54;12.63;;;7.97;;
8895;SDS011;4484;48.928;10.066;2023-12-14T04:01:23;9.13;;;7.23;;
8895;SDS011;4484;48.928;10.066;2023-12-14T04:03:50;13.87;;;7.17;;
8895;SDS011;4484;48.928;10.066;2023-12-14T04:06:17;12.13;;;7.90;;
8895;SDS011;4484;48.928;10.066;2023-12-14T04:08:44;13.13;;;8.80;;
8895;SDS011;4484;48.928;10.066;2023-12-14T04:11:11;9.83;;;7.00;;
8895;SDS011;4484;48.928;10.066;2023-12-14T04:13:38;8.97;;;6.80;;
8895;SDS011;4484;48.928;10.066;2023-12-14T04:16:05;9.27;;;6.43;;
8895;SDS011;4484;48.928;10.066;2023-12-14T04:18:32;17.80;;;8.17;;
8895;SDS011;4484;48.928;10.066;2023-12-14T04:21:00;9.63;;;7.30;;
8895;SDS011;4484;48.928;10.066;2023-12-14T04:23:27;10.73;;;7.13;;
8895;SDS011;4484;48.928;10.066;2023-12-14T04:25:53;9.90;;;7.47;;
8895;SDS011;4484;48.928;10.066;2023-12-14T04:28:20;8.50;;;6.40;;
8895;SDS011;4484;48.928;10.066;2023-12-14T04:30:47;9.77;;;7.23;;
8895;SDS011;4484;48.928;10.066;2023-12-14T04:33:14;7.83;;;6.50;;
8895;SDS011;4484;48.928;10.066;2023-12-14T04:35:41;7.50;;;6.13;;
8895;SDS011;4484;48.928;10.066;2023-12-14T04:38:08;9.07;;;6.97;;
8895;SDS011;4484;48.928;10.066;2023-12-14T04:40:35;9.10;;;7.03;;
8895;SDS011;4484;48.928;10.066;2023-12-14T04:43:02;10.17;;;7.50;;
8895;SDS011;4484;48.928;10.066;2023-12-14T04:45:29;9.90;;;7.10;;
8895;SDS011;4484;48.928;10.066;2023-12-14T04:47:55;11.67;;;8.20;;
8895;SDS011;4484;48.928;10.066;2023-12-14T04:50:22;12.17;;;8.80;;
8895;SDS011;4484;48.928;10.066;2023-12-14T04:52:49;15.33;;;9.57;;
8895;SDS011;4484;48.928;10.066;2023-12-14T04:55:16;14.17;;;10.63;;
8895;SDS011;4484;48.928;10.066;2023-12-14T04:57:43;12.40;;;9.63;;
8895;SDS011;4484;48.928;10.066;2023-12-14T05:00:12;11.37;;;8.67;;
8895;SDS011;4484;48.928;10.066;2023-12-14T05:02:40;10.00;;;7.70;;
8895;SDS011;4484;48.928;10.066;2023-12-14T05:05:07;9.17;;;7.43;;
8895;SDS011;4484;48.928;10.066;2023-12-14T05:07:34;9.13;;;6.77;;
8895;SDS011;4484;48.928;10.066;2023-12-14T05:10:01;10.40;;;7.53;;
8895;SDS011;4484;48.928;10.066;2023-12-14T05:12:28;11.40;;;8.13;;
8895;SDS011;4484;48.928;10.066;2023-12-14T05:14:58;13.80;;;9.50;;
8895;SDS011;4484;48.928;10.066;2023-12-14T05:17:25;11.13;;;8.07;;
8895;SDS011;4484;48.928;10.066;2023-12-14T05:19:52;9.63;;;7.33;;
8895;SDS011;4484;48.928;10.066;2023-12-14T05:22:18;10.87;;;7.57;;
8895;SDS011;4484;48.928;10.066;2023-12-14T05:24:48;8.03;;;6.40;;
8895;SDS011;4484;48.928;10.066;2023-12-14T05:27:15;6.90;;;5.90;;
8895;SDS011;4484;48.928;10.066;2023-12-14T05:29:42;5.13;;;4.43;;
8895;SDS011;4484;48.928;10.066;2023-12-14T05:32:09;8.33;;;4.97;;
8895;SDS011;4484;48.928;10.066;2023-12-14T05:34:35;6.60;;;5.07;;
8895;SDS011;4484;48.928;10.066;2023-12-14T05:37:02;6.50;;;4.60;;
8895;SDS011;4484;48.928;10.066;2023-12-14T05:39:29;6.30;;;4.10;;
8895;SDS011;4484;48.928;10.066;2023-12-14T05:41:56;8.20;;;6.30;;
8895;SDS011;4484;48.928;10.066;2023-12-14T05:44:23;4.77;;;4.03;;
8895;SDS011;4484;48.928;10.066;2023-12-14T05:46:51;8.70;;;6.73;;
8895;SDS011;4484;48.928;10.066;2023-12-14T05:49:18;7.53;;;6.00;;
8895;SDS011;4484;48.928;10.066;2023-12-14T05:51:44;6.87;;;5.07;;
8895;SDS011;4484;48.928;10.066;2023-12-14T05:54:11;6.73;;;5.37;;
8895;SDS011;4484;48.928;10.066;2023-12-14T05:56:38;7.93;;;6.00;;
8895;SDS011;4484;48.928;10.066;2023-12-14T05:59:05;6.93;;;5.40;;
8895;SDS011;4484;48.928;10.066;2023-12-14T06:01:32;7.87;;;6.30;;
8895;SDS011;4484;48.928;10.066;2023-12-14T06:03:59;9.30;;;6.87;;
8895;SDS011;4484;48.928;10.066;2023-12-14T06:06:26;14.80;;;8.40;;
8895;SDS011;4484;48.928;10.066;2023-12-14T06:08:53;11.83;;;8.43;;
8895;SDS011;4484;48.928;10.066;2023-12-14T06:11:20;19.63;;;10.13;;
8895;SDS011;4484;48.928;10.066;2023-12-14T06:13:47;13.23;;;9.20;;
8895;SDS011;4484;48.928;10.066;2023-12-14T06:16:14;22.60;;;13.03;;
8895;SDS011;4484;48.928;10.066;2023-12-14T06:18:41;14.80;;;10.47;;
8895;SDS011;4484;48.928;10.066;2023-12-14T06:21:11;16.80;;;11.50;;
8895;SDS011;4484;48.928;10.066;2023-12-14T06:23:38;13.97;;;9.03;;
8895;SDS011;4484;48.928;10.066;2023-12-14T06:26:05;13.93;;;10.03;;
8895;SDS011;4484;48.928;10.066;2023-12-14T06:28:33;11.93;;;8.97;;
8895;SDS011;4484;48.928;10.066;2023-12-14T06:31:00;12.53;;;9.47;;
8895;SDS011;4484;48.928;10.066;2023-12-14T06:33:28;11.60;;;7.93;;
8895;SDS011;4484;48.928;10.066;2023-12-14T06:35:55;12.77;;;8.07;;
8895;SDS011;4484;48.928;10.066;2023-12-14T06:38:22;13.63;;;9.83;;
8895;SDS011;4484;48.928;10.066;2023-12-14T06:40:49;13.27;;;8.73;;
8895;SDS011;4484;48.928;10.066;2023-12-14T06:43:16;10.70;;;7.90;;
8895;SDS011;4484;48.928;10.066;2023-12-14T06:45:43;10.83;;;8.20;;
8895;SDS011;4484;48.928;10.066;2023-12-14T06:48:10;17.00;;;11.70;;
8895;SDS011;4484;48.928;10.066;2023-12-14T06:50:37;14.37;;;10.40;;
8895;SDS011;4484;48.928;10.066;2023-12-14T06:53:04;10.83;;;8.37;;
8895;SDS011;4484;48.928;10.066;2023-12-14T06:55:31;10.27;;;7.20;;
8895;SDS011;4484;48.928;10.066;2023-12-14T06:57:58;9.23;;;7.30;;
8895;SDS011;4484;48.928;10.066;2023-12-14T07:00:25;9.07;;;6.83;;
8895;SDS011;4484;48.928;10.066;2023-12-14T07:02:52;7.33;;;6.30;;
8895;SDS011;4484;48.928;10.066;2023-12-14T07:05:19;7.80;;;6.30;;
8895;SDS011;4484;48.928;10.066;2023-12-14T07:07:46;15.37;;;9.47;;
8895;SDS011;4484;48.928;10.066;2023-12-14T07:10:13;9.20;;;7.00;;
8895;SDS011;4484;48.928;10.066;2023-12-14T07:12:40;9.10;;;7.07;;
8895;SDS011;4484;48.928;10.066;2023-12-14T07:15:07;12.47;;;8.63;;
8895;SDS011;4484;48.928;10.066;2023-12-14T07:17:35;9.77;;;7.43;;
8895;SDS011;4484;48.928;10.066;2023-12-14T07:20:01;9.87;;;7.57;;
8895;SDS011;4484;48.928;10.066;2023-12-14T07:22:29;10.37;;;7.97;;
8895;SDS011;4484;48.928;10.066;2023-12-14T07:24:55;11.73;;;8.30;;
8895;SDS011;4484;48.928;10.066;2023-12-14T07:27:25;11.77;;;8.73;;
8895;SDS011;4484;48.928;10.066;2023-12-14T07:29:52;10.40;;;8.17;;
8895;SDS011;4484;48.928;10.066;2023-12-14T07:32:19;10.60;;;8.20;;
8895;SDS011;4484;48.928;10.066;2023-12-14T07:34:46;10.57;;;7.87;;
8895;SDS011;4484;48.928;10.066;2023-12-14T07:37:14;11.43;;;8.37;;
8895;SDS011;4484;48.928;10.066;2023-12-14T07:39:41;10.73;;;8.90;;
8895;SDS011;4484;48.928;10.066;2023-12-14T07:42:08;16.67;;;8.47;;
8895;SDS011;4484;48.928;10.066;2023-12-14T07:44:35;13.17;;;9.73;;
8895;SDS011;4484;48.928;10.066;2023-12-14T07:47:02;22.43;;;13.83;;
8895;SDS011;4484;48.928;10.066;2023-12-14T07:49:29;21.67;;;14.37;;
8895;SDS011;4484;48.928;10.066;2023-12-14T07:51:56;19.80;;;12.40;;
8895;SDS011;4484;48.928;10.066;2023-12-14T07:54:23;23.33;;;14.23;;
8895;SDS011;4484;48.928;10.066;2023-12-14T07:56:52;14.43;;;10.57;;
8895;SDS011;4484;48.928;10.066;2023-12-14T07:59:19;16.80;;;11.77;;
8895;SDS011;4484;48.928;10.066;2023-12-14T08:01:46;28.17;;;14.27;;
8895;SDS011;4484;48.928;10.066;2023-12-14T08:04:13;14.87;;;10.60;;
8895;SDS011;4484;48.928;10.066;2023-12-14T08:06:41;16.53;;;11.87;;
8895;SDS011;4484;48.928;10.066;2023-12-14T08:09:08;15.97;;;11.77;;
8895;SDS011;4484;48.928;10.066;2023-12-14T08:11:35;15.90;;;11.67;;
8895;SDS011;4484;48.928;10.066;2023-12-14T08:14:02;14.90;;;9.90;;
8895;SDS011;4484;48.928;10.066;2023-12-14T08:16:29;17.73;;;11.33;;
8895;SDS011;4484;48.928;10.066;2023-12-14T08:18:56;15.87;;;11.77;;
8895;SDS011;4484;48.928;10.066;2023-12-14T08:21:23;16.70;;;12.17;;
8895;SDS011;4484;48.928;10.066;2023-12-14T08:23:50;17.77;;;11.83;;
8895;SDS011;4484;48.928;10.066;2023-12-14T08:26:17;16.27;;;11.80;;
8895;SDS011;4484;48.928;10.066;2023-12-14T08:28:44;14.77;;;10.83;;
8895;SDS011;4484;48.928;10.066;2023-12-14T08:31:11;15.60;;;11.47;;
8895;SDS011;4484;48.928;10.066;2023-12-14T08:33:40;15.10;;;10.57;;
8895;SDS011;4484;48.928;10.066;2023-12-14T08:36:15;15.63;;;9.93;;
8895;SDS011;4484;48.928;10.066;2023-12-14T08:38:43;13.03;;;10.17;;
8895;SDS011;4484;48.928;10.066;2023-12-14T08:41:13;14.27;;;10.17;;
8895;SDS011;4484;48.928;10.066;2023-12-14T08:43:42;14.57;;;10.30;;
8895;SDS011;4484;48.928;10.066;2023-12-14T08:46:09;14.23;;;10.47;;
8895;SDS011;4484;48.928;10.066;2023-12-14T08:48:36;15.47;;;10.50;;
8895;SDS011;4484;48.928;10.066;2023-12-14T08:51:04;15.20;;;10.93;;
8895;SDS011;4484;48.928;10.066;2023-12-14T08:53:31;17.83;;;11.90;;
8895;SDS011;4484;48.928;10.066;2023-12-14T08:55:58;14.37;;;10.90;;
8895;SDS011;4484;48.928;10.066;2023-12-14T08:58:26;16.27;;;11.00;;
8895;SDS011;4484;48.928;10.066;2023-12-14T09:00:53;15.43;;;9.43;;
8895;SDS011;4484;48.928;10.066;2023-12-14T09:03:20;14.13;;;9.37;;
8895;SDS011;4484;48.928;10.066;2023-12-14T09:05:47;12.63;;;9.13;;
8895;SDS011;4484;48.928;10.066;2023-12-14T09:08:14;13.80;;;9.43;;
8895;SDS011;4484;48.928;10.066;2023-12-14T09:10:41;15.87;;;9.73;;
8895;SDS011;4484;48.928;10.066;2023-12-14T09:13:08;11.90;;;9.43;;
8895;SDS011;4484;48.928;10.066;2023-12-14T09:15:35;16.07;;;9.90;;
8895;SDS011;4484;48.928;10.066;2023-12-14T09:18:02;16.97;;;9.83;;
8895;SDS011;4484;48.928;10.066;2023-12-14T09:20:30;14.30;;;10.27;;
8895;SDS011;4484;48.928;10.066;2023-12-14T09:22:57;13.57;;;10.43;;
8895;SDS011;4484;48.928;10.066;2023-12-14T09:25:24;13.17;;;8.73;;
8895;SDS011;4484;48.928;10.066;2023-12-14T09:27:51;15.03;;;11.10;;
8895;SDS011;4484;48.928;10.066;2023-12-14T09:30:19;15.83;;;10.30;;
8895;SDS011;4484;48.928;10.066;2023-12-14T09:32:46;15.63;;;10.10;;
8895;SDS011;4484;48.928;10.066;2023-12-14T09:35:13;14.07;;;9.53;;
8895;SDS011;4484;48.928;10.066;2023-12-14T09:37:40;12.17;;;8.43;;
8895;SDS011;4484;48.928;10.066;2023-12-14T09:40:07;10.77;;;8.17;;
8895;SDS011;4484;48.928;10.066;2023-12-14T09:42:36;11.33;;;8.40;;
8895;SDS011;4484;48.928;10.066;2023-12-14T09:45:06;11.57;;;8.70;;
8895;SDS011;4484;48.928;10.066;2023-12-14T09:47:33;11.30;;;8.73;;
8895;SDS011;4484;48.928;10.066;2023-12-14T09:50:01;11.93;;;7.80;;
8895;SDS011;4484;48.928;10.066;2023-12-14T09:52:29;12.13;;;8.13;;
8895;SDS011;4484;48.928;10.066;2023-12-14T09:54:56;11.67;;;8.80;;
8895;SDS011;4484;48.928;10.066;2023-12-14T09:57:23;10.10;;;7.40;;
8895;SDS011;4484;48.928;10.066;2023-12-14T09:59:52;10.23;;;7.20;;
8895;SDS011;4484;48.928;10.066;2023-12-14T10:02:20;13.70;;;8.40;;
8895;SDS011;4484;48.928;10.066;2023-12-14T10:04:54;16.47;;;9.33;;
8895;SDS011;4484;48.928;10.066;2023-12-14T10:07:21;20.73;;;13.03;;
8895;SDS011;4484;48.928;10.066;2023-12-14T10:09:49;15.97;;;10.30;;
8895;SDS011;4484;48.928;10.066;2023-12-14T10:12:16;11.07;;;8.57;;
8895;SDS011;4484;48.928;10.066;2023-12-14T10:14:43;11.63;;;8.50;;
8895;SDS011;4484;48.928;10.066;2023-12-14T10:17:14;10.50;;;8.00;;
8895;SDS011;4484;48.928;10.066;2023-12-14T10:19:45;10.57;;;7.93;;
8895;SDS011;4484;48.928;10.066;2023-12-14T10:22:16;10.60;;;7.20;;
8895;SDS011;4484;48.928;10.066;2023-12-14T10:24:45;13.83;;;8.30;;
8895;SDS011;4484;48.928;10.066;2023-12-14T10:27:16;11.27;;;7.23;;
8895;SDS011;4484;48.928;10.066;2023-12-14T10:29:43;9.57;;;6.13;;
8895;SDS011;4484;48.928;10.066;2023-12-14T10:32:12;9.83;;;6.63;;
8895;SDS011;4484;48.928;10.066;2023-12-14T10:34:39;11.13;;;7.40;;
8895;SDS011;4484;48.928;10.066;2023-12-14T10:37:07;9.60;;;6.47;;
8895;SDS011;4484;48.928;10.066;2023-12-14T10:39:36;9.50;;;7.73;;
8895;SDS011;4484;48.928;10.066;2023-12-14T10:42:08;11.40;;;7.40;;
8895;SDS011;4484;48.928;10.066;2023-12-14T10:44:45;10.03;;;7.00;;
8895;SDS011;4484;48.928;10.066;2023-12-14T10:47:34;12.20;;;7.03;;
8895;SDS011;4484;48.928;10.066;2023-12-14T10:50:02;12.93;;;6.70;;
8895;SDS011;4484;48.928;10.066;2023-12-14T10:52:32;9.47;;;6.40;;
8895;SDS011;4484;48.928;10.066;2023-12-14T10:55:04;11.67;;;7.10;;
8895;SDS011;4484;48.928;10.066;2023-12-14T10:57:41;10.70;;;6.77;;
8895;SDS011;4484;48.928;10.066;2023-12-14T11:00:10;10.57;;;6.93;;
8895;SDS011;4484;48.928;10.066;2023-12-14T11:02:39;13.40;;;7.33;;
8895;SDS011;4484;48.928;10.066;2023-12-14T11:05:10;8.73;;;6.40;;
8895;SDS011;4484;48.928;10.066;2023-12-14T11:10:43;10.33;;;7.70;;
8895;SDS011;4484;48.928;10.066;2023-12-14T11:13:18;9.27;;;7.07;;
8895;SDS011;4484;48.928;10.066;2023-12-14T11:15:47;13.80;;;7.20;;
8895;SDS011;4484;48.928;10.066;2023-12-14T11:20:47;7.70;;;5.27;;
8895;SDS011;4484;48.928;10.066;2023-12-14T11:23:17;7.27;;;6.10;;
8895;SDS011;4484;48.928;10.066;2023-12-14T11:26:02;9.30;;;6.67;;
8895;SDS011;4484;48.928;10.066;2023-12-14T11:28:35;8.40;;;6.77;;
8895;SDS011;4484;48.928;10.066;2023-12-14T11:31:03;10.67;;;6.40;;
8895;SDS011;4484;48.928;10.066;2023-12-14T11:33:34;8.57;;;5.47;;
8895;SDS011;4484;48.928;10.066;2023-12-14T11:36:07;9.70;;;5.77;;
8895;SDS011;4484;48.928;10.066;2023-12-14T11:38:35;8.83;;;6.67;;
8895;SDS011;4484;48.928;10.066;2023-12-14T11:41:02;9.60;;;6.33;;
8895;SDS011;4484;48.928;10.066;2023-12-14T11:43:29;7.23;;;5.97;;
8895;SDS011;4484;48.928;10.066;2023-12-14T11:45:56;10.50;;;7.70;;
8895;SDS011;4484;48.928;10.066;2023-12-14T11:48:23;10.23;;;7.70;;
8895;SDS011;4484;48.928;10.066;2023-12-14T11:50:50;9.57;;;6.57;;
8895;SDS011;4484;48.928;10.066;2023-12-14T11:53:17;11.10;;;7.77;;
8895;SDS011;4484;48.928;10.066;2023-12-14T11:55:44;13.40;;;8.63;;
8895;SDS011;4484;48.928;10.066;2023-12-14T11:58:12;8.77;;;7.43;;
8895;SDS011;4484;48.928;10.066;2023-12-14T12:00:42;12.43;;;7.97;;
8895;SDS011;4484;48.928;10.066;2023-12-14T12:03:15;9.83;;;7.00;;
8895;SDS011;4484;48.928;10.066;2023-12-14T12:05:47;11.30;;;7.27;;
8895;SDS011;4484;48.928;10.066;2023-12-14T12:08:18;8.33;;;5.83;;
8895;SDS011;4484;48.928;10.066;2023-12-14T12:10:46;7.80;;;5.97;;
8895;SDS011;4484;48.928;10.066;2023-12-14T12:13:15;9.10;;;6.27;;
8895;SDS011;4484;48.928;10.066;2023-12-14T12:15:43;9.43;;;5.73;;
8895;SDS011;4484;48.928;10.066;2023-12-14T12:18:11;7.33;;;5.30;;
8895;SDS011;4484;48.928;10.066;2023-12-14T12:20:40;11.00;;;6.50;;
8895;SDS011;4484;48.928;10.066;2023-12-14T12:23:07;8.80;;;5.60;;
8895;SDS011;4484;48.928;10.066;2023-12-14T12:25:34;6.53;;;5.90;;
8895;SDS011;4484;48.928;10.066;2023-12-14T12:28:02;13.00;;;7.20;;
8895;SDS011;4484;48.928;10.066;2023-12-14T12:30:32;10.77;;;7.27;;
8895;SDS011;4484;48.928;10.066;2023-12-14T12:33:05;8.63;;;6.33;;
8895;SDS011;4484;48.928;10.066;2023-12-14T12:35:32;10.00;;;6.40;;
8895;SDS011;4484;48.928;10.066;2023-12-14T12:38:00;9.57;;;6.80;;
8895;SDS011;4484;48.928;10.066;2023-12-14T12:40:28;8.73;;;6.17;;
8895;SDS011;4484;48.928;10.066;2023-12-14T12:42:57;14.17;;;7.07;;
8895;SDS011;4484;48.928;10.066;2023-12-14T12:45:24;10.20;;;7.70;;
8895;SDS011;4484;48.928;10.066;2023-12-14T12:47:54;10.57;;;6.70;;
8895;SDS011;4484;48.928;10.066;2023-12-14T12:50:21;11.83;;;6.90;;
8895;SDS011;4484;48.928;10.066;2023-12-14T12:52:48;10.03;;;6.70;;
8895;SDS011;4484;48.928;10.066;2023-12-14T12:55:16;11.77;;;7.37;;
8895;SDS011;4484;48.928;10.066;2023-12-14T12:57:43;8.53;;;6.37;;
8895;SDS011;4484;48.928;10.066;2023-12-14T13:00:10;9.80;;;6.70;;
8895;SDS011;4484;48.928;10.066;2023-12-14T13:02:38;13.50;;;7.13;;
8895;SDS011;4484;48.928;10.066;2023-12-14T13:05:06;12.80;;;7.10;;
8895;SDS011;4484;48.928;10.066;2023-12-14T13:07:35;13.03;;;7.37;;
8895;SDS011;4484;48.928;10.066;2023-12-14T13:10:03;11.10;;;7.33;;
8895;SDS011;4484;48.928;10.066;2023-12-14T13:12:53;11.40;;;6.97;;
8895;SDS011;4484;48.928;10.066;2023-12-14T13:15:21;9.23;;;6.83;;
8895;SDS011;4484;48.928;10.066;2023-12-14T13:17:53;13.27;;;7.90;;
8895;SDS011;4484;48.928;10.066;2023-12-14T13:20:20;10.37;;;6.83;;
8895;SDS011;4484;48.928;10.066;2023-12-14T13:22:48;11.50;;;7.70;;
8895;SDS011;4484;48.928;10.066;2023-12-14T13:25:15;14.10;;;8.60;;
8895;SDS011;4484;48.928;10.066;2023-12-14T13:27:42;10.37;;;7.77;;
8895;SDS011;4484;48.928;10.066;2023-12-14T13:30:10;12.50;;;7.07;;
8895;SDS011;4484;48.928;10.066;2023-12-14T13:32:38;11.83;;;8.47;;
8895;SDS011;4484;48.928;10.066;2023-12-14T13:35:05;11.30;;;7.53;;
8895;SDS011;4484;48.928;10.066;2023-12-14T13:37:32;15.70;;;7.73;;
8895;SDS011;4484;48.928;10.066;2023-12-14T13:40:00;9.93;;;6.77;;
8895;SDS011;4484;48.928;10.066;2023-12-14T13:42:27;11.23;;;6.93;;
8895;SDS011;4484;48.928;10.066;2023-12-14T13:44:54;10.27;;;7.00;;
8895;SDS011;4484;48.928;10.066;2023-12-14T13:47:21;12.13;;;6.60;;
8895;SDS011;4484;48.928;10.066;2023-12-14T13:49:49;8.07;;;6.60;;
8895;SDS011;4484;48.928;10.066;2023-12-14T13:52:16;8.37;;;6.20;;
8895;SDS011;4484;48.928;10.066;2023-12-14T13:54:42;9.93;;;6.67;;
8895;SDS011;4484;48.928;10.066;2023-12-14T13:57:09;8.97;;;6.83;;
8895;SDS011;4484;48.928;10.066;2023-12-14T13:59:36;8.90;;;5.90;;
8895;SDS011;4484;48.928;10.066;2023-12-14T14:02:03;12.93;;;6.70;;
8895;SDS011;4484;48.928;10.066;2023-12-14T14:04:31;7.43;;;5.80;;
8895;SDS011;4484;48.928;10.066;2023-12-14T14:06:58;9.27;;;5.80;;
8895;SDS011;4484;48.928;10.066;2023-12-14T14:09:25;8.70;;;6.23;;
8895;SDS011;4484;48.928;10.066;2023-12-14T14:11:52;9.87;;;6.43;;
8895;SDS011;4484;48.928;10.066;2023-12-14T14:14:21;9.83;;;6.40;;
8895;SDS011;4484;48.928;10.066;2023-12-14T14:16:49;14.37;;;9.80;;
8895;SDS011;4484;48.928;10.066;2023-12-14T14:19:16;13.37;;;8.30;;
8895;SDS011;4484;48.928;10.066;2023-12-14T14:21:43;8.93;;;6.80;;
8895;SDS011;4484;48.928;10.066;2023-12-14T14:24:10;8.37;;;6.37;;
8895;SDS011;4484;48.928;10.066;2023-12-14T14:26:37;10.30;;;6.80;;
8895;SDS011;4484;48.928;10.066;2023-12-14T14:29:04;6.80;;;5.87;;
8895;SDS011;4484;48.928;10.066;2023-12-14T14:31:31;9.70;;;6.97;;
8895;SDS011;4484;48.928;10.066;2023-12-14T14:33:59;7.43;;;5.93;;
8895;SDS011;4484;48.928;10.066;2023-12-14T14:36:27;10.20;;;6.60;;
8895;SDS011;4484;48.928;10.066;2023-12-14T14:38:53;8.00;;;6.00;;
8895;SDS011;4484;48.928;10.066;2023-12-14T14:41:23;8.33;;;6.90;;
8895;SDS011;4484;48.928;10.066;2023-12-14T14:43:50;13.60;;;9.20;;
8895;SDS011;4484;48.928;10.066;2023-12-14T14:46:17;10.97;;;7.90;;
8895;SDS011;4484;48.928;10.066;2023-12-14T14:48:44;9.33;;;6.63;;
8895;SDS011;4484;48.928;10.066;2023-12-14T14:51:11;10.13;;;6.93;;
8895;SDS011;4484;48.928;10.066;2023-12-14T14:53:38;8.97;;;7.17;;
8895;SDS011;4484;48.928;10.066;2023-12-14T14:56:09;10.07;;;7.63;;
8895;SDS011;4484;48.928;10.066;2023-12-14T14:58:37;10.07;;;6.90;;
8895;SDS011;4484;48.928;10.066;2023-12-14T15:01:04;9.70;;;5.80;;